Main page
METAR-TAF:

METAR-TAF

Airports :

Wick Airport

Wick, Scotland

latitude: 58-27N, longitude: 003-05W, elevation: 39 m

Current weather observation

The report was made 27 minutes ago, at 18:50 UTC
Wind 16 kt from the Southeast
Temperature 14°C
Humidity 82%
Pressure 1003 hPa
Visibility 10 km or more

METAR: EGPC 251850Z AUTO 13016KT 9999 NCD 14/11 Q1003

Time: 20:17 (19:17 UTC)

Forecast

The report was made 2 hours and 20 minutes ago, at 16:57 UTC
Forecast valid from 25 at 18 UTC to 26 at 03 UTC
Wind 12 kt from the Southeast
Visibility 10 km or more
Few clouds at a height of 2000 ft
Probability 40% :
Temporary
from 25 at 18 UTC to 26 at 03 UTC
Wind 18 kt from the South/Southeast with gusts up to 28 kt
Probability 30% :
Temporary
from 26 at 00 UTC to 26 at 03 UTC
Visibility: 8000 m
Broken clouds at a height of 600 ft

TAF: EGPC 251657Z 2518/2603 14012KT 9999 FEW020 PROB40 TEMPO 2518/2603 15018G28KT PROB30 TEMPO 2600/2603 8000 BKN006

Weather observations and forecasts of more than 4000 airports (METAR and TAF reports).

The available stations are represented by yellow and red dots on the map.

Hover mouse over dot to see the name of the station.

Then click to see weather observations and forecasts.

To change the map : click on the green buttons with a black cross to zoom in, on the green button with a dash to zoom out, or on the green arrows for adjacent maps.


METAR-TAF: